createdAt,value
2018-11-13T00:01:03.961Z,11.71
2018-11-13T00:03:33.205Z,11.75
2018-11-13T00:06:19.065Z,11.76
2018-11-13T00:08:48.429Z,11.77
2018-11-13T00:11:17.430Z,11.77
2018-11-13T00:13:46.414Z,11.76
2018-11-13T00:16:15.414Z,11.73
2018-11-13T00:18:44.446Z,11.72
2018-11-13T00:21:13.486Z,11.74
2018-11-13T00:23:42.525Z,11.74
2018-11-13T00:26:11.590Z,11.75
2018-11-13T00:28:40.680Z,11.76
2018-11-13T00:31:09.647Z,11.78
2018-11-13T00:33:38.654Z,11.76
2018-11-13T00:36:07.653Z,11.76
2018-11-13T00:38:36.696Z,11.74
2018-11-13T00:41:06.311Z,11.72
2018-11-13T00:43:35.652Z,11.73
2018-11-13T00:46:04.755Z,11.71
2018-11-13T00:48:33.720Z,11.69
2018-11-13T00:51:02.907Z,11.65
2018-11-13T00:53:31.982Z,11.62
2018-11-13T00:56:01.024Z,11.61
2018-11-13T00:58:30.094Z,11.60
2018-11-13T01:00:59.110Z,11.61
2018-11-13T01:03:28.109Z,11.64
2018-11-13T01:05:57.123Z,11.66
2018-11-13T01:08:26.126Z,11.69
2018-11-13T01:10:55.106Z,11.70
2018-11-13T01:13:24.075Z,11.70
2018-11-13T01:15:53.570Z,11.71
2018-11-13T01:18:23.351Z,11.69
2018-11-13T01:20:52.308Z,11.68
2018-11-13T01:23:21.873Z,11.71
2018-11-13T01:25:50.843Z,11.72
2018-11-13T01:28:19.808Z,11.73
2018-11-13T01:30:48.867Z,11.75
2018-11-13T01:33:17.868Z,11.76
2018-11-13T01:35:46.849Z,11.76
2018-11-13T01:38:15.806Z,11.75
2018-11-13T01:40:44.816Z,11.75
2018-11-13T01:43:13.810Z,11.77
2018-11-13T01:45:42.797Z,11.79
2018-11-13T01:48:11.807Z,11.80
2018-11-13T01:50:40.855Z,11.81
2018-11-13T01:53:09.800Z,11.83
2018-11-13T01:55:38.764Z,11.82
2018-11-13T01:58:07.777Z,11.80
2018-11-13T02:00:36.797Z,11.79
2018-11-13T02:03:05.765Z,11.81
2018-11-13T02:05:34.874Z,11.82
2018-11-13T02:08:03.884Z,11.83
2018-11-13T02:10:32.864Z,11.86
2018-11-13T02:13:01.940Z,11.86
2018-11-13T02:15:30.973Z,11.87
2018-11-13T02:17:59.896Z,11.88
2018-11-13T02:20:28.971Z,11.88
2018-11-13T02:22:58.105Z,11.88
2018-11-13T02:25:27.128Z,11.89
2018-11-13T02:27:56.145Z,11.88
2018-11-13T02:30:25.220Z,11.85
2018-11-13T02:32:54.335Z,11.82
2018-11-13T02:35:23.466Z,11.82
2018-11-13T02:37:53.131Z,11.81
2018-11-13T02:40:22.096Z,11.80
2018-11-13T02:42:51.063Z,11.78
2018-11-13T02:45:20.676Z,11.75
2018-11-13T02:47:49.727Z,11.76
2018-11-13T02:50:20.138Z,11.75
2018-11-13T02:52:49.217Z,11.75
2018-11-13T02:55:18.242Z,11.73
2018-11-13T02:57:47.752Z,11.73
2018-11-13T03:00:19.395Z,11.73
2018-11-13T03:02:48.568Z,11.73
2018-11-13T03:05:19.004Z,11.72
2018-11-13T03:07:47.979Z,11.71
2018-11-13T03:10:18.137Z,11.71
2018-11-13T03:12:47.197Z,11.71
2018-11-13T03:15:17.245Z,11.70
2018-11-13T03:17:46.314Z,11.71
2018-11-13T03:20:20.244Z,11.74
2018-11-13T03:22:49.797Z,11.74
2018-11-13T03:25:21.135Z,11.75
2018-11-13T03:27:50.125Z,11.75
2018-11-13T03:30:21.286Z,11.75
2018-11-13T03:32:50.353Z,11.75
2018-11-13T03:35:19.396Z,11.75
2018-11-13T03:37:48.414Z,11.75
2018-11-13T03:40:17.712Z,11.74
2018-11-13T03:42:47.729Z,11.73
2018-11-13T03:45:17.333Z,11.72
2018-11-13T03:47:46.296Z,11.75
2018-11-13T03:50:18.499Z,11.75
2018-11-13T03:52:48.196Z,11.75
2018-11-13T03:55:17.917Z,11.76
2018-11-13T03:57:47.395Z,11.77
2018-11-13T04:00:19.862Z,11.79
2018-11-13T04:02:48.892Z,11.77
2018-11-13T04:05:18.772Z,11.77
2018-11-13T04:07:49.022Z,11.77
2018-11-13T04:10:20.381Z,11.75
2018-11-13T04:12:49.526Z,11.74
2018-11-13T04:15:20.168Z,11.72
2018-11-13T04:17:49.262Z,11.72
2018-11-13T04:20:19.508Z,11.73
2018-11-13T04:22:48.788Z,11.76
2018-11-13T04:25:17.852Z,11.79
2018-11-13T04:27:46.952Z,11.80
2018-11-13T04:30:17.504Z,11.82
2018-11-13T04:32:46.631Z,11.82
2018-11-13T04:35:16.701Z,11.82
2018-11-13T04:37:45.664Z,11.84
2018-11-13T04:40:16.063Z,11.84
2018-11-13T04:42:47.205Z,11.81
2018-11-13T04:45:17.429Z,11.81
2018-11-13T04:47:48.352Z,11.79
2018-11-13T04:50:18.488Z,11.78
2018-11-13T04:52:48.168Z,11.80
2018-11-13T04:55:17.462Z,11.78
2018-11-13T04:57:47.892Z,11.78
2018-11-13T05:00:18.404Z,11.79
2018-11-13T05:02:47.821Z,11.81
2018-11-13T05:05:18.011Z,11.82
2018-11-13T05:07:48.700Z,11.82
2018-11-13T05:10:17.734Z,11.86
2018-11-13T05:12:48.123Z,11.87
2018-11-13T05:15:17.169Z,11.90
2018-11-13T05:17:46.822Z,11.90
2018-11-13T05:20:16.631Z,11.89
2018-11-13T05:22:45.706Z,11.89
2018-11-13T05:25:16.468Z,11.90
2018-11-13T05:27:45.531Z,11.90
2018-11-13T05:30:16.213Z,11.91
2018-11-13T05:32:45.313Z,11.92
2018-11-13T05:35:15.496Z,11.91
2018-11-13T05:37:45.074Z,11.89
2018-11-13T05:40:17.461Z,11.89
2018-11-13T05:42:46.532Z,11.87
2018-11-13T05:45:17.796Z,11.84
2018-11-13T05:47:46.818Z,11.81
2018-11-13T05:50:17.500Z,11.80
2018-11-13T05:52:48.581Z,11.80
2018-11-13T05:55:17.784Z,11.80
2018-11-13T05:57:46.826Z,11.81
2018-11-13T06:00:19.112Z,11.80
2018-11-13T06:02:48.089Z,11.78
2018-11-13T06:05:17.081Z,11.75
2018-11-13T06:07:46.176Z,11.72
2018-11-13T06:10:15.147Z,11.71
2018-11-13T06:12:44.147Z,11.69
2018-11-13T06:15:13.188Z,11.67
2018-11-13T06:17:42.273Z,11.67
2018-11-13T06:20:12.829Z,11.66
2018-11-13T06:22:41.909Z,11.66
2018-11-13T06:25:13.114Z,11.67
2018-11-13T06:27:43.577Z,11.68
2018-11-13T06:30:16.912Z,11.69
2018-11-13T06:32:46.542Z,11.69
2018-11-13T06:35:15.528Z,11.71
2018-11-13T06:37:45.361Z,11.72
2018-11-13T06:40:14.320Z,11.74
2018-11-13T06:42:43.336Z,11.73
2018-11-13T06:45:18.571Z,11.72
2018-11-13T06:47:48.385Z,11.70
2018-11-13T06:50:17.378Z,11.65
2018-11-13T06:52:47.718Z,11.63
2018-11-13T06:55:21.920Z,11.62
2018-11-13T06:57:50.972Z,11.62
2018-11-13T07:00:20.009Z,11.63
2018-11-13T07:02:48.937Z,11.64
2018-11-13T07:05:18.653Z,11.65
2018-11-13T07:07:47.979Z,11.65
2018-11-13T07:10:19.219Z,11.63
2018-11-13T07:12:49.319Z,11.60
2018-11-13T07:15:19.644Z,11.54
2018-11-13T07:17:50.760Z,11.51
2018-11-13T07:20:21.994Z,11.47
2018-11-13T07:22:51.914Z,11.47
2018-11-13T07:25:21.312Z,11.48
2018-11-13T07:27:51.165Z,11.49
2018-11-13T07:30:20.863Z,11.52
2018-11-13T07:32:49.862Z,11.55
2018-11-13T07:35:19.918Z,11.58
2018-11-13T07:37:50.884Z,11.63
2018-11-13T07:40:19.974Z,11.68
2018-11-13T07:42:48.975Z,11.70
2018-11-13T07:45:18.138Z,11.70
2018-11-13T07:47:47.761Z,11.69
2018-11-13T07:50:16.877Z,11.67
2018-11-13T07:52:46.741Z,11.66
2018-11-13T07:55:16.953Z,11.66
2018-11-13T07:57:46.087Z,11.70
2018-11-13T08:00:17.260Z,11.71
2018-11-13T08:02:47.802Z,11.73
2018-11-13T08:05:16.775Z,11.74
2018-11-13T08:07:45.724Z,11.75
2018-11-13T08:10:15.295Z,11.77
2018-11-13T08:12:45.031Z,11.79
2018-11-13T08:15:15.408Z,11.82
2018-11-13T08:17:45.094Z,11.87
2018-11-13T08:20:15.716Z,11.93
2018-11-13T08:22:44.867Z,12.00
2018-11-13T08:25:14.053Z,12.04
2018-11-13T08:27:44.230Z,12.10
2018-11-13T08:30:15.940Z,12.14
2018-11-13T08:32:49.817Z,12.17
2018-11-13T08:35:18.737Z,12.21
2018-11-13T08:37:48.546Z,12.24
2018-11-13T08:40:18.695Z,12.26
2018-11-13T08:42:49.548Z,12.24
2018-11-13T08:45:18.566Z,12.21
2018-11-13T08:47:47.660Z,12.17
2018-11-13T08:50:17.070Z,12.14
2018-11-13T08:52:46.804Z,12.11
2018-11-13T08:55:16.188Z,12.12
2018-11-13T08:57:45.608Z,12.15
2018-11-13T09:00:18.101Z,12.18
2018-11-13T09:02:47.877Z,12.23
2018-11-13T09:05:17.180Z,12.29
2018-11-13T09:07:46.245Z,12.34
2018-11-13T09:10:16.702Z,12.38
2018-11-13T09:12:46.114Z,12.43
2018-11-13T09:15:16.734Z,12.53
2018-11-13T09:17:45.881Z,12.60
2018-11-13T09:20:17.280Z,12.65
2018-11-13T09:22:46.490Z,12.69
2018-11-13T09:25:19.664Z,12.70
2018-11-13T09:27:50.263Z,12.68
2018-11-13T09:30:20.706Z,12.68
2018-11-13T09:32:49.956Z,12.70
2018-11-13T09:35:19.617Z,12.69
2018-11-13T09:37:48.687Z,12.69
2018-11-13T09:40:21.025Z,12.68
2018-11-13T09:42:51.277Z,12.69
2018-11-13T09:45:20.531Z,12.68
2018-11-13T09:47:49.626Z,12.66
2018-11-13T09:50:20.801Z,12.66
2018-11-13T09:52:52.029Z,12.66
2018-11-13T09:55:22.363Z,12.65
2018-11-13T09:57:51.497Z,12.67
2018-11-13T10:00:22.834Z,12.68
2018-11-13T10:02:55.117Z,12.71
2018-11-13T10:05:24.169Z,12.73
2018-11-13T10:07:53.707Z,12.74
2018-11-13T10:10:22.925Z,12.76
2018-11-13T10:12:53.229Z,12.75
2018-11-13T10:15:25.977Z,12.78
2018-11-13T10:17:55.196Z,12.79
2018-11-13T10:20:24.083Z,12.79
2018-11-13T10:22:54.290Z,12.82
2018-11-13T10:25:23.359Z,12.82
2018-11-13T10:27:53.822Z,12.82
2018-11-13T10:30:24.704Z,12.83
2018-11-13T10:32:54.329Z,12.85
2018-11-13T10:35:24.568Z,12.88
2018-11-13T10:37:54.366Z,12.91
2018-11-13T10:40:24.624Z,12.92
2018-11-13T10:42:53.991Z,12.95
2018-11-13T10:45:29.720Z,12.99
2018-11-13T10:47:58.916Z,13.03
2018-11-13T10:50:28.278Z,13.05
2018-11-13T10:52:57.524Z,13.06
2018-11-13T10:55:26.566Z,13.06
2018-11-13T10:57:55.628Z,13.06
2018-11-13T11:00:32.762Z,13.06
2018-11-13T11:03:06.004Z,13.05
2018-11-13T11:05:34.968Z,13.05
2018-11-13T11:08:04.001Z,13.06
2018-11-13T11:10:32.982Z,13.06
2018-11-13T11:13:02.261Z,13.08
2018-11-13T11:15:32.065Z,13.09
2018-11-13T11:18:02.210Z,13.12
2018-11-13T11:20:31.293Z,13.16
2018-11-13T11:23:00.344Z,13.18
2018-11-13T11:25:29.460Z,13.19
2018-11-13T11:27:58.540Z,13.19
2018-11-13T11:30:27.660Z,13.21
2018-11-13T11:32:56.666Z,13.22
2018-11-13T11:35:25.868Z,13.23
2018-11-13T11:37:54.900Z,13.25
2018-11-13T11:40:24.001Z,13.25
2018-11-13T11:42:53.034Z,13.25
2018-11-13T11:45:22.133Z,13.23
2018-11-13T11:47:51.327Z,13.21
2018-11-13T11:50:20.432Z,13.19
2018-11-13T11:52:50.481Z,13.19
2018-11-13T11:55:20.193Z,13.19
2018-11-13T11:57:49.242Z,13.20
2018-11-13T12:00:19.949Z,13.22
2018-11-13T12:02:49.097Z,13.25
2018-11-13T12:05:18.370Z,13.27
2018-11-13T12:07:47.405Z,13.29
2018-11-13T12:10:17.186Z,13.31
2018-11-13T12:12:46.621Z,13.36
2018-11-13T12:15:16.185Z,13.40
2018-11-13T12:17:46.552Z,13.42
2018-11-13T12:20:16.419Z,13.43
2018-11-13T12:22:50.196Z,13.47
2018-11-13T12:25:21.975Z,13.53
2018-11-13T12:27:53.777Z,13.55
2018-11-13T12:30:24.847Z,13.58
2018-11-13T12:32:53.935Z,13.60
2018-11-13T12:35:23.586Z,13.63
2018-11-13T12:37:52.706Z,13.62
2018-11-13T12:40:22.966Z,13.60
2018-11-13T12:42:52.894Z,13.57
2018-11-13T12:45:21.908Z,13.55
2018-11-13T12:47:50.914Z,13.54
2018-11-13T12:50:20.706Z,13.53
2018-11-13T12:52:49.702Z,13.51
2018-11-13T12:55:20.565Z,13.48
2018-11-13T12:57:49.573Z,13.46
2018-11-13T13:00:21.480Z,13.43
2018-11-13T13:02:50.612Z,13.44
2018-11-13T13:05:19.676Z,13.45
2018-11-13T13:07:49.716Z,13.49
2018-11-13T13:10:19.806Z,13.54
2018-11-13T13:12:48.787Z,13.57
2018-11-13T13:15:18.843Z,13.60
2018-11-13T13:17:48.073Z,13.64
2018-11-13T13:20:20.247Z,13.67
2018-11-13T13:22:50.201Z,13.69
2018-11-13T13:25:20.136Z,13.70
2018-11-13T13:27:49.220Z,13.71
2018-11-13T13:30:19.640Z,13.73
2018-11-13T13:32:49.398Z,13.76
2018-11-13T13:35:55.069Z,13.79
2018-11-13T13:38:24.158Z,13.81
2018-11-13T13:40:54.417Z,13.82
2018-11-13T13:43:23.950Z,13.83
2018-11-13T13:45:59.125Z,13.83
2018-11-13T13:48:28.400Z,13.81
2018-11-13T13:50:57.733Z,13.79
2018-11-13T13:53:28.431Z,13.78
2018-11-13T13:55:58.803Z,13.76
2018-11-13T13:58:28.893Z,13.77
2018-11-13T14:00:58.721Z,13.76
2018-11-13T14:03:27.592Z,13.73
2018-11-13T14:05:56.743Z,13.72
2018-11-13T14:08:25.745Z,13.71
2018-11-13T14:10:54.792Z,13.68
2018-11-13T14:13:23.916Z,13.68
2018-11-13T14:15:53.766Z,13.67
2018-11-13T14:18:22.800Z,13.64
2018-11-13T14:20:51.846Z,13.65
2018-11-13T14:23:20.962Z,13.63
2018-11-13T14:25:50.105Z,13.63
2018-11-13T14:28:19.471Z,13.60
2018-11-13T14:30:48.653Z,13.61
2018-11-13T14:33:17.782Z,13.61
2018-11-13T14:35:46.924Z,13.64
2018-11-13T14:38:15.838Z,13.66
2018-11-13T14:40:46.027Z,13.69
2018-11-13T14:43:15.470Z,13.72
2018-11-13T14:45:44.908Z,13.73
2018-11-13T14:48:14.741Z,13.75
2018-11-13T14:50:44.249Z,13.77
2018-11-13T14:53:13.890Z,13.81
2018-11-13T14:55:44.543Z,13.84
2018-11-13T14:58:15.088Z,13.84
2018-11-13T15:00:44.485Z,13.85
2018-11-13T15:03:16.564Z,13.87
2018-11-13T15:05:45.623Z,13.86
2018-11-13T15:08:14.941Z,13.86
2018-11-13T15:10:47.713Z,13.87
2018-11-13T15:13:16.966Z,13.90
2018-11-13T15:15:46.038Z,13.93
2018-11-13T15:18:15.128Z,13.95
2018-11-13T15:20:44.704Z,13.94
2018-11-13T15:23:14.645Z,13.94
2018-11-13T15:25:43.725Z,13.92
2018-11-13T15:28:14.102Z,13.87
2018-11-13T15:30:48.680Z,13.83
2018-11-13T15:33:19.205Z,13.77
2018-11-13T15:35:48.320Z,13.72
2018-11-13T15:38:17.382Z,13.66
2018-11-13T15:40:46.406Z,13.61
2018-11-13T15:43:15.462Z,13.56
2018-11-13T15:45:44.618Z,13.53
2018-11-13T15:48:14.925Z,13.49
2018-11-13T15:50:44.285Z,13.45
2018-11-13T15:53:13.537Z,13.39
2018-11-13T15:55:43.639Z,13.35
2018-11-13T15:58:12.730Z,13.30
2018-11-13T16:00:42.669Z,13.26
2018-11-13T16:03:20.327Z,13.23
2018-11-13T16:05:52.446Z,13.19
2018-11-13T16:08:22.064Z,13.15
2018-11-13T16:10:52.032Z,13.12
2018-11-13T16:13:21.505Z,13.08
2018-11-13T16:15:50.556Z,13.04
2018-11-13T16:18:22.035Z,13.01
2018-11-13T16:20:51.097Z,12.99
2018-11-13T16:23:22.253Z,12.96
2018-11-13T16:25:51.403Z,12.95
2018-11-13T16:28:20.470Z,12.92
2018-11-13T16:30:50.063Z,12.90
2018-11-13T16:33:18.970Z,12.87
2018-11-13T16:35:48.190Z,12.86
2018-11-13T16:38:18.469Z,12.83
2018-11-13T16:40:47.346Z,12.81
2018-11-13T16:43:16.338Z,12.80
2018-11-13T16:45:45.369Z,12.75
2018-11-13T16:48:14.586Z,12.74
2018-11-13T16:50:43.571Z,12.72
2018-11-13T16:53:13.378Z,12.70
2018-11-13T16:55:47.382Z,12.68
2018-11-13T16:58:17.134Z,12.67
2018-11-13T17:00:46.380Z,12.66
2018-11-13T17:03:16.437Z,12.66
2018-11-13T17:05:45.499Z,12.65
2018-11-13T17:08:14.600Z,12.65
2018-11-13T17:10:44.409Z,12.65
2018-11-13T17:13:13.588Z,12.64
2018-11-13T17:15:42.724Z,12.63
2018-11-13T17:18:13.599Z,12.63
2018-11-13T17:20:41.231Z,12.64
2018-11-13T17:23:11.130Z,12.64
2018-11-13T17:25:40.356Z,12.63
2018-11-13T17:28:09.536Z,12.61
2018-11-13T17:30:38.860Z,12.61
2018-11-13T17:33:09.510Z,12.60
2018-11-13T17:35:38.908Z,12.62
2018-11-13T17:38:08.056Z,12.63
2018-11-13T17:40:37.816Z,12.63
2018-11-13T17:43:08.020Z,12.64
2018-11-13T17:45:39.419Z,12.63
2018-11-13T17:48:09.546Z,12.61
2018-11-13T17:50:39.581Z,12.59
2018-11-13T17:53:09.165Z,12.57
2018-11-13T17:55:38.322Z,12.57
2018-11-13T17:58:09.723Z,12.56
2018-11-13T18:00:40.133Z,12.55
2018-11-13T18:03:12.284Z,12.55
2018-11-13T18:05:42.509Z,12.54
2018-11-13T18:08:12.099Z,12.54
2018-11-13T18:10:42.263Z,12.55
2018-11-13T18:13:11.363Z,12.56
2018-11-13T18:15:40.396Z,12.55
2018-11-13T18:18:09.942Z,12.55
2018-11-13T18:20:40.368Z,12.53
2018-11-13T18:23:09.766Z,12.49
2018-11-13T18:25:39.590Z,12.47
2018-11-13T18:28:08.769Z,12.46
2018-11-13T18:30:38.675Z,12.43
2018-11-13T18:33:08.783Z,12.40
2018-11-13T18:35:39.156Z,12.38
2018-11-13T18:38:09.800Z,12.36
2018-11-13T18:40:38.849Z,12.33
2018-11-13T18:43:09.199Z,12.31
2018-11-13T18:45:39.730Z,12.27
2018-11-13T18:48:08.742Z,12.25
2018-11-13T18:50:41.321Z,12.23
2018-11-13T18:53:10.339Z,12.22
2018-11-13T18:55:39.295Z,12.20
2018-11-13T18:58:08.379Z,12.20
2018-11-13T19:00:38.807Z,12.18
2018-11-13T19:03:09.228Z,12.16
2018-11-13T19:05:39.287Z,12.16
2018-11-13T19:08:09.174Z,12.15
2018-11-13T19:10:42.096Z,12.14
2018-11-13T19:13:19.141Z,12.14
2018-11-13T19:15:50.829Z,12.14
2018-11-13T19:18:20.788Z,12.15
2018-11-13T19:20:50.486Z,12.15
2018-11-13T19:23:20.071Z,12.15
2018-11-13T19:25:49.028Z,12.15
2018-11-13T19:28:18.077Z,12.17
2018-11-13T19:30:47.094Z,12.19
2018-11-13T19:33:16.933Z,12.20
2018-11-13T19:35:46.085Z,12.20
2018-11-13T19:38:15.066Z,12.21
2018-11-13T19:40:44.128Z,12.22
2018-11-13T19:43:14.389Z,12.23
2018-11-13T19:45:43.059Z,12.26
2018-11-13T19:48:13.163Z,12.27
2018-11-13T19:50:42.194Z,12.28
2018-11-13T19:53:11.203Z,12.30
2018-11-13T19:55:40.437Z,12.31
2018-11-13T19:58:09.529Z,12.33
2018-11-13T20:00:39.302Z,12.35
2018-11-13T20:03:09.528Z,12.36
2018-11-13T20:05:40.055Z,12.36
2018-11-13T20:08:09.738Z,12.37
2018-11-13T20:10:40.119Z,12.37
2018-11-13T20:13:10.104Z,12.38
2018-11-13T20:15:39.592Z,12.39
2018-11-13T20:18:08.621Z,12.39
2018-11-13T20:20:37.698Z,12.40
2018-11-13T20:23:07.943Z,12.42
2018-11-13T20:25:37.203Z,12.43
2018-11-13T20:28:06.363Z,12.44
2018-11-13T20:30:36.639Z,12.44
2018-11-13T20:33:06.038Z,12.46
2018-11-13T20:35:35.866Z,12.47
2018-11-13T20:38:05.402Z,12.49
2018-11-13T20:40:37.853Z,12.51
2018-11-13T20:43:09.007Z,12.53
2018-11-13T20:45:39.106Z,12.54
2018-11-13T20:48:08.384Z,12.53
2018-11-13T20:50:38.321Z,12.54
2018-11-13T20:53:07.364Z,12.54
2018-11-13T20:55:36.667Z,12.54
2018-11-13T20:58:06.465Z,12.54
2018-11-13T21:00:37.706Z,12.52
2018-11-13T21:03:07.332Z,12.53
2018-11-13T21:05:38.064Z,12.54
2018-11-13T21:08:08.318Z,12.57
2018-11-13T21:10:41.281Z,12.57
2018-11-13T21:13:10.705Z,12.59
2018-11-13T21:15:39.798Z,12.60
2018-11-13T21:18:08.771Z,12.61
2018-11-13T21:20:38.096Z,12.63
2018-11-13T21:23:07.083Z,12.64
2018-11-13T21:25:36.077Z,12.66
2018-11-13T21:28:06.127Z,12.65
2018-11-13T21:30:37.439Z,12.67
2018-11-13T21:33:07.658Z,12.68
2018-11-13T21:35:36.833Z,12.69
2018-11-13T21:38:06.447Z,12.70
2018-11-13T21:40:35.470Z,12.70
2018-11-13T21:43:04.504Z,12.70
2018-11-13T21:45:33.557Z,12.69
2018-11-13T21:48:02.812Z,12.69
2018-11-13T21:50:31.784Z,12.68
2018-11-13T21:53:01.419Z,12.69
2018-11-13T21:55:30.944Z,12.69
2018-11-13T21:58:00.265Z,12.69
2018-11-13T22:00:32.114Z,12.69
2018-11-13T22:03:02.466Z,12.70
2018-11-13T22:05:32.065Z,12.70
2018-11-13T22:08:01.156Z,12.70
2018-11-13T22:10:30.124Z,12.71
2018-11-13T22:12:59.362Z,12.71
2018-11-13T22:15:29.514Z,12.72
2018-11-13T22:17:58.571Z,12.74
2018-11-13T22:20:27.698Z,12.74
2018-11-13T22:22:58.203Z,12.76
2018-11-13T22:25:27.957Z,12.77
2018-11-13T22:27:58.159Z,12.79
2018-11-13T22:30:28.694Z,12.79
2018-11-13T22:32:57.830Z,12.80
2018-11-13T22:35:26.894Z,12.80
2018-11-13T22:37:55.955Z,12.83
2018-11-13T22:40:27.182Z,12.86
2018-11-13T22:42:56.403Z,12.85
2018-11-13T22:45:26.644Z,12.85
2018-11-13T22:47:57.339Z,12.85
2018-11-13T22:50:28.718Z,12.84
2018-11-13T22:52:58.252Z,12.85
2018-11-13T22:55:27.250Z,12.85
2018-11-13T22:57:57.041Z,12.86
2018-11-13T23:00:38.293Z,12.84
2018-11-13T23:03:08.657Z,12.84
2018-11-13T23:05:37.871Z,12.82
2018-11-13T23:08:08.473Z,12.81
2018-11-13T23:10:37.525Z,12.83
2018-11-13T23:13:06.744Z,12.83
2018-11-13T23:15:35.666Z,12.83
2018-11-13T23:18:05.018Z,12.81
2018-11-13T23:20:52.355Z,12.81
2018-11-13T23:23:39.939Z,12.83
2018-11-13T23:26:23.980Z,12.82
2018-11-13T23:29:10.453Z,12.82
2018-11-13T23:31:58.089Z,12.82
2018-11-13T23:34:43.389Z,12.80
2018-11-13T23:37:26.722Z,12.81
2018-11-13T23:40:09.692Z,12.80
2018-11-13T23:42:56.593Z,12.83
2018-11-13T23:45:41.605Z,12.83
2018-11-13T23:48:29.613Z,12.83
2018-11-13T23:50:59.020Z,12.83
2018-11-13T23:53:47.637Z,12.83
2018-11-13T23:56:16.839Z,12.83
2018-11-13T23:59:01.120Z,12.84
